Fort Seneca, Ohio
Current Conditions -  °F | °C
As of 2:53 PM on Tuesday 25 Nov 2014 (Local Time) from KFDY Reporting Station
Overcast Overcast  
Wind Chill: 22°   Ceiling: 1500
Heat Index: 32°   Visibility: 10mi
Dew Point: 26°   Wind: 14mph
Humidity: 79%   Direction: 260°W
Pressure: 30.09"   Gusts: NA
Location:  41.154°N, 83.2212°W
Report Text: KFDY 251953Z AUTO 26012KT 10SM OVC015 00/M03 A3009 RMK AO2 SLP195 T00001033
Loading
Personal Weather Stations






























Interactive Weather Map New forecast layout! Learn more

10-Day Weather Forecast

Advertisements
Track Severe Weather on mobile